Time;durP1;ratioP1;P1;durP2;ratioP2;P2;SDS_P1;SDS_P2;PMS_P1;PMS_P2;Temp;Humidity;BMP_temperature;BMP_pressure;BME280_temperature;BME280_humidity;BME280_pressure;Samples;Min_cycle;Max_cycle;Signal;HPM_P1;HPM_P2
2021/01/21 00:00:37;;;;;;;10.20;6.28;;;-0.50;99.90;;;;;;8365516;28;20496;-68
2021/01/21 00:04:37;;;;;;;11.43;6.53;;;-0.40;99.90;;;;;;8365521;28;20036;-69
2021/01/21 00:08:38;;;;;;;12.13;6.78;;;-0.40;99.90;;;;;;8365376;28;20033;-68
2021/01/21 00:12:38;;;;;;;11.07;5.68;;;-0.10;99.90;;;;;;8364079;28;20056;-68
2021/01/21 00:16:39;;;;;;;8.95;5.43;;;-0.20;99.90;;;;;;8365308;28;20036;-69
2021/01/21 00:20:39;;;;;;;11.10;6.15;;;-0.40;99.90;;;;;;8363647;28;20033;-69
2021/01/21 00:24:40;;;;;;;12.32;5.50;;;-0.20;99.90;;;;;;8364523;28;20586;-69
2021/01/21 00:28:40;;;;;;;9.68;5.90;;;-0.20;99.90;;;;;;8364638;28;20025;-69
2021/01/21 00:32:41;;;;;;;8.45;5.40;;;-0.50;99.90;;;;;;8364529;28;20040;-69
2021/01/21 00:36:41;;;;;;;10.65;6.22;;;-0.70;99.90;;;;;;8363713;28;20029;-69
2021/01/21 00:40:42;;;;;;;8.68;5.72;;;-0.80;99.90;;;;;;8364234;28;20383;-69
2021/01/21 00:44:42;;;;;;;11.63;6.05;;;-0.50;99.90;;;;;;8364227;28;20050;-69
2021/01/21 00:48:45;;;;;;;9.55;5.88;;;-0.60;99.90;;;;;;8363971;28;20032;-69
2021/01/21 00:52:46;;;;;;;10.70;5.75;;;-0.80;99.90;;;;;;8363842;28;20021;-69
2021/01/21 00:56:47;;;;;;;8.43;5.13;;;-0.70;99.90;;;;;;8363879;28;20059;-69
2021/01/21 01:00:47;;;;;;;8.98;5.40;;;-1.00;99.90;;;;;;8363690;28;20056;-69
2021/01/21 01:04:48;;;;;;;10.20;5.80;;;-0.80;99.90;;;;;;8363750;28;20032;-69
2021/01/21 01:08:48;;;;;;;13.80;6.18;;;-0.70;99.90;;;;;;8378814;28;20025;-69
2021/01/21 01:12:49;;;;;;;10.55;5.22;;;-0.80;99.90;;;;;;8378857;28;20025;-69
2021/01/21 01:16:49;;;;;;;7.57;4.28;;;-0.70;99.90;;;;;;8378757;28;20021;-69
2021/01/21 01:20:50;;;;;;;7.70;4.13;;;-0.70;99.90;;;;;;8378436;28;20052;-69
2021/01/21 01:24:51;;;;;;;9.40;4.50;;;-0.70;99.90;;;;;;8378261;28;20399;-69
2021/01/21 01:28:51;;;;;;;5.88;3.75;;;-0.60;99.90;;;;;;8362911;28;20092;-68
2021/01/21 01:32:52;;;;;;;6.28;3.80;;;-0.20;99.90;;;;;;8362672;28;20021;-69
2021/01/21 01:36:52;;;;;;;8.38;4.10;;;-0.40;99.90;;;;;;8363252;28;20630;-69
2021/01/21 01:40:53;;;;;;;6.45;3.63;;;-0.60;99.90;;;;;;8362035;28;20028;-69
2021/01/21 01:44:53;;;;;;;5.65;3.40;;;-0.80;99.90;;;;;;8362332;28;20040;-69
2021/01/21 01:48:58;;;;;;;6.32;3.10;;;-0.80;99.90;;;;;;8361178;28;20484;-69
2021/01/21 01:52:59;;;;;;;6.35;3.30;;;-0.70;99.90;;;;;;8362046;28;20051;-69
2021/01/21 01:57:02;;;;;;;5.35;3.08;;;-0.40;99.90;;;;;;8362189;28;20021;-69
2021/01/21 02:01:02;;;;;;;5.82;3.38;;;-0.60;99.90;;;;;;8377020;28;20112;-68
2021/01/21 02:05:03;;;;;;;5.28;3.38;;;-0.40;99.90;;;;;;8361786;28;20052;-69
2021/01/21 02:09:04;;;;;;;5.60;3.38;;;-0.60;99.90;;;;;;8361433;28;20134;-69
2021/01/21 02:13:32;;;;;;;6.20;3.75;;;-0.70;99.90;;;;;;8361721;28;20036;-69
2021/01/21 02:18:01;;;;;;;6.30;4.38;;;-0.60;99.90;;;;;;8361609;28;20017;-69
2021/01/21 02:22:01;;;;;;;6.47;4.00;;;-0.50;99.90;;;;;;8360418;28;20399;-69
2021/01/21 02:26:10;;;;;;;5.25;3.30;;;-0.50;99.90;;;;;;8361181;28;20031;-69
2021/01/21 02:30:23;;;;;;;6.20;3.55;;;-0.50;99.90;;;;;;8360091;28;20021;-69
2021/01/21 02:34:40;;;;;;;6.60;3.47;;;-0.30;99.90;;;;;;8360355;28;20057;-69
2021/01/21 02:38:43;;;;;;;6.55;4.20;;;0.00;99.90;;;;;;8360218;28;20014;-68
2021/01/21 02:42:48;;;;;;;6.38;3.83;;;-0.20;99.90;;;;;;8360560;28;20585;-69
2021/01/21 02:46:49;;;;;;;6.47;3.75;;;-0.50;99.90;;;;;;8376196;28;20039;-69
2021/01/21 02:50:58;;;;;;;6.25;4.22;;;-0.50;99.90;;;;;;8360149;28;20112;-69
2021/01/21 02:55:37;;;;;;;7.40;3.87;;;-0.40;99.90;;;;;;8360371;28;20100;-69
2021/01/21 02:59:40;;;;;;;5.95;3.58;;;-0.30;99.90;;;;;;8341781;28;20264;-69
2021/01/21 03:03:41;;;;;;;5.85;3.50;;;0.00;99.90;;;;;;8360183;28;20392;-69
2021/01/21 03:07:42;;;;;;;6.43;3.85;;;-0.10;99.90;;;;;;8360243;28;20035;-69
2021/01/21 03:11:43;;;;;;;6.18;3.45;;;-0.10;99.90;;;;;;8359766;28;20078;-69
2021/01/21 03:15:43;;;;;;;6.30;3.75;;;-0.20;99.90;;;;;;8359962;28;20021;-69
2021/01/21 03:19:44;;;;;;;4.55;3.03;;;-0.10;99.90;;;;;;8375179;28;20025;-69
2021/01/21 03:23:45;;;;;;;4.90;3.20;;;-0.10;99.90;;;;;;8359201;28;20032;-69
2021/01/21 03:27:46;;;;;;;6.55;4.47;;;0.00;99.90;;;;;;8375236;28;20547;-69
2021/01/21 03:31:46;;;;;;;5.78;4.10;;;0.10;99.90;;;;;;8359451;28;20033;-69
2021/01/21 03:35:47;;;;;;;6.93;4.32;;;-0.10;99.90;;;;;;8359595;28;20032;-68
2021/01/21 03:39:47;;;;;;;7.80;4.40;;;0.30;99.90;;;;;;8359314;28;20033;-69
2021/01/21 03:43:48;;;;;;;8.32;4.20;;;0.00;99.90;;;;;;8359444;28;20044;-69
2021/01/21 03:47:48;;;;;;;6.78;4.30;;;0.10;99.90;;;;;;8374815;28;20130;-69
2021/01/21 03:51:49;;;;;;;8.13;4.20;;;0.00;99.90;;;;;;8359084;28;20111;-69
2021/01/21 03:55:49;;;;;;;9.68;4.50;;;0.00;99.90;;;;;;8374470;28;20492;-69
2021/01/21 03:59:50;;;;;;;5.78;3.50;;;-0.20;99.90;;;;;;8358872;28;20095;-69
2021/01/21 04:03:51;;;;;;;5.43;3.33;;;0.00;99.90;;;;;;8359213;28;20047;-69
2021/01/21 04:07:52;;;;;;;6.93;4.32;;;0.20;99.90;;;;;;8359194;28;20048;-69
2021/01/21 04:11:53;;;;;;;7.60;4.03;;;0.30;99.90;;;;;;8360132;28;20025;-69
2021/01/21 04:15:53;;;;;;;7.10;3.80;;;0.40;99.90;;;;;;8365345;28;20029;-69
2021/01/21 04:19:54;;;;;;;8.07;4.50;;;0.40;99.90;;;;;;8364951;28;20100;-69
2021/01/21 04:24:00;;;;;;;6.20;4.10;;;0.30;99.90;;;;;;8380229;28;20024;-69
2021/01/21 04:28:00;;;;;;;6.47;3.90;;;0.40;99.90;;;;;;8364884;28;20035;-69
2021/01/21 04:32:01;;;;;;;8.82;4.68;;;0.60;99.90;;;;;;8364388;28;20061;-69
2021/01/21 04:36:01;;;;;;;6.10;3.95;;;0.60;99.90;;;;;;8364503;28;20021;-69
2021/01/21 04:40:03;;;;;;;7.53;3.70;;;0.60;99.90;;;;;;8379339;28;20025;-69
2021/01/21 04:44:04;;;;;;;8.35;4.40;;;0.60;99.90;;;;;;8364221;28;20114;-69
2021/01/21 04:48:06;;;;;;;7.93;4.22;;;0.60;99.90;;;;;;8364117;28;20368;-66
2021/01/21 04:52:09;;;;;;;6.88;4.47;;;0.60;99.90;;;;;;8363792;28;20495;-68
2021/01/21 04:56:13;;;;;;;12.63;6.35;;;0.60;99.90;;;;;;8363329;28;20029;-69
2021/01/21 05:00:15;;;;;;;20.25;8.40;;;0.50;99.90;;;;;;8365035;28;20052;-69
2021/01/21 05:04:16;;;;;;;18.05;8.32;;;1.20;99.90;;;;;;8378279;28;20404;-69
2021/01/21 05:08:18;;;;;;;11.98;6.70;;;1.50;99.90;;;;;;8376127;28;20031;-68
2021/01/21 05:12:19;;;;;;;5.28;2.75;;;1.40;99.90;;;;;;8362608;28;20033;-68
2021/01/21 05:16:19;;;;;;;1.85;0.90;;;1.50;99.90;;;;;;8361650;28;20403;-69
2021/01/21 05:20:24;;;;;;;1.35;0.70;;;2.80;99.90;;;;;;8362766;28;20036;-69
2021/01/21 05:24:25;;;;;;;1.77;0.85;;;4.10;99.90;;;;;;8361222;28;20029;-68
2021/01/21 05:28:27;;;;;;;1.20;0.77;;;4.80;99.90;;;;;;8361003;28;20118;-68
2021/01/21 05:32:27;;;;;;;3.28;1.00;;;5.30;99.90;;;;;;8388894;28;20047;-67
2021/01/21 05:36:34;;;;;;;1.73;0.90;;;5.50;99.90;;;;;;8394937;28;20037;-70
2021/01/21 05:40:35;;;;;;;1.55;1.00;;;5.80;99.90;;;;;;8384628;28;20305;-70
2021/01/21 05:44:36;;;;;;;0.85;0.70;;;5.90;99.90;;;;;;8347395;28;20136;-71
2021/01/21 05:48:37;;;;;;;2.65;0.65;;;6.30;99.90;;;;;;8356669;28;20028;-71
2021/01/21 05:52:39;;;;;;;1.10;0.50;;;6.40;99.90;;;;;;8360149;28;20072;-72
2021/01/21 05:56:40;;;;;;;1.23;0.30;;;6.60;99.90;;;;;;8359857;28;20021;-70
2021/01/21 06:00:44;;;;;;;0.40;0.30;;;6.70;99.90;;;;;;8360569;28;20079;-71
2021/01/21 06:04:47;;;;;;;0.70;0.40;;;6.80;99.90;;;;;;8362033;28;20074;-71
2021/01/21 06:08:48;;;;;;;0.70;0.40;;;6.90;99.90;;;;;;8360075;28;20025;-71
2021/01/21 06:12:51;;;;;;;1.13;0.30;;;7.00;99.90;;;;;;8361500;28;20028;-71
2021/01/21 06:16:52;;;;;;;0.57;0.30;;;7.00;99.90;;;;;;8376668;28;20118;-71
2021/01/21 06:20:53;;;;;;;0.47;0.40;;;7.10;99.90;;;;;;8360105;28;20071;-71
2021/01/21 06:24:58;;;;;;;0.52;0.40;;;7.20;99.90;;;;;;8357692;28;20025;-71
2021/01/21 06:29:00;;;;;;;0.32;0.32;;;7.30;99.90;;;;;;8370325;28;20075;-73
2021/01/21 06:33:08;;;;;;;0.70;0.30;;;7.30;99.90;;;;;;8374001;28;20028;-71
2021/01/21 06:37:18;;;;;;;0.50;0.50;;;7.40;99.90;;;;;;8364911;28;20031;-73
2021/01/21 06:41:20;;;;;;;1.20;0.40;;;7.40;99.90;;;;;;8368982;28;20116;-71
2021/01/21 06:45:21;;;;;;;0.98;0.50;;;7.50;99.90;;;;;;8368675;28;20097;-71
2021/01/21 06:49:22;;;;;;;0.73;0.40;;;7.50;99.90;;;;;;8373827;28;20047;-71
2021/01/21 06:53:24;;;;;;;0.88;0.60;;;7.50;99.90;;;;;;8359416;28;20044;-71
2021/01/21 06:57:34;;;;;;;0.47;0.40;;;7.60;99.90;;;;;;8367870;28;20109;-72
2021/01/21 07:01:41;;;;;;;0.30;0.30;;;7.60;99.90;;;;;;8356925;28;20025;-71
2021/01/21 07:05:56;;;;;;;0.77;0.50;;;7.60;99.90;;;;;;8378714;28;20396;-71
2021/01/21 07:09:58;;;;;;;0.88;0.60;;;7.50;99.90;;;;;;8350486;28;20509;-70
2021/01/21 07:13:59;;;;;;;1.73;0.70;;;7.40;99.90;;;;;;8369252;28;20115;-71
2021/01/21 07:18:01;;;;;;;1.38;0.70;;;7.20;99.90;;;;;;8394678;28;20049;-72
2021/01/21 07:22:31;;;;;;;1.23;0.60;;;6.90;99.90;;;;;;8359682;28;20033;-71
2021/01/21 07:26:37;;;;;;;0.85;0.60;;;6.60;99.90;;;;;;8343398;28;20032;-70
2021/01/21 07:30:38;;;;;;;1.70;0.75;;;6.30;99.90;;;;;;8341987;28;20383;-71
2021/01/21 07:34:44;;;;;;;1.20;0.85;;;6.20;99.90;;;;;;8380432;28;20172;-71
2021/01/21 07:38:44;;;;;;;2.60;1.42;;;6.00;99.90;;;;;;8385600;28;20021;-73
2021/01/21 07:42:45;;;;;;;3.13;1.60;;;5.70;99.90;;;;;;8367794;28;20480;-71
2021/01/21 07:46:45;;;;;;;2.28;1.50;;;5.40;99.90;;;;;;8362116;28;20030;-72
2021/01/21 07:50:46;;;;;;;2.38;1.33;;;5.30;99.90;;;;;;8374245;28;20028;-72
2021/01/21 07:54:54;;;;;;;1.80;1.02;;;5.30;99.90;;;;;;8381244;28;20017;-71
2021/01/21 07:59:01;;;;;;;1.70;1.10;;;5.20;99.90;;;;;;8377804;28;20016;-77
2021/01/21 08:03:02;;;;;;;2.65;1.52;;;5.50;99.90;;;;;;8380628;28;20028;-72
2021/01/21 08:07:03;;;;;;;2.72;1.38;;;5.70;99.90;;;;;;8376259;28;20503;-71
2021/01/21 08:11:17;;;;;;;4.97;2.03;;;5.90;99.90;;;;;;8382393;28;20147;-71
2021/01/21 08:15:22;;;;;;;6.00;2.95;;;6.20;99.90;;;;;;8372429;28;20024;-71
2021/01/21 08:19:23;;;;;;;1.33;0.93;;;6.30;99.90;;;;;;8377841;28;20028;-71
2021/01/21 08:23:24;;;;;;;1.67;1.00;;;6.40;99.90;;;;;;8394533;28;20494;-71
2021/01/21 08:27:24;;;;;;;2.30;1.30;;;6.50;99.90;;;;;;8379617;28;20402;-71
2021/01/21 08:31:36;;;;;;;2.35;1.25;;;6.60;99.90;;;;;;8377832;28;20063;-71
2021/01/21 08:35:44;;;;;;;1.23;0.68;;;6.60;99.90;;;;;;8366759;28;20085;-71
2021/01/21 08:39:45;;;;;;;1.42;0.95;;;6.80;99.90;;;;;;8373265;28;20112;-71
2021/01/21 08:43:46;;;;;;;2.13;1.17;;;6.80;99.90;;;;;;8364583;28;20392;-71
2021/01/21 08:47:49;;;;;;;2.53;1.10;;;7.10;99.90;;;;;;8364694;28;20547;-71
2021/01/21 08:52:09;;;;;;;1.73;1.10;;;7.40;99.90;;;;;;8364265;28;20033;-71
2021/01/21 08:56:13;;;;;;;1.10;0.80;;;7.70;99.90;;;;;;8364176;28;20075;-71
2021/01/21 09:00:14;;;;;;;2.72;1.60;;;7.90;99.90;;;;;;8363292;28;20040;-71
2021/01/21 09:04:28;;;;;;;2.47;1.40;;;7.80;99.90;;;;;;8381228;28;20099;-71
2021/01/21 09:08:29;;;;;;;1.83;1.10;;;7.70;99.90;;;;;;8396998;28;20373;-71
2021/01/21 09:12:30;;;;;;;1.73;1.17;;;7.80;99.90;;;;;;8396595;28;20039;-71
2021/01/21 09:16:41;;;;;;;2.30;1.25;;;7.90;99.90;;;;;;8371608;28;20040;-71
2021/01/21 09:20:42;;;;;;;1.35;0.90;;;8.20;99.90;;;;;;8364687;28;20055;-72
2021/01/21 09:25:05;;;;;;;1.90;1.02;;;8.40;99.90;;;;;;8361585;28;20426;-71
2021/01/21 09:29:06;;;;;;;2.78;1.17;;;8.40;99.90;;;;;;8361332;28;20029;-71
2021/01/21 09:33:07;;;;;;;2.25;1.13;;;8.50;99.90;;;;;;8372343;28;20020;-71
2021/01/21 09:37:07;;;;;;;2.33;0.95;;;8.40;99.90;;;;;;8393879;28;20078;-71
2021/01/21 09:41:08;;;;;;;1.92;1.13;;;8.40;99.90;;;;;;8372328;28;20033;-71
2021/01/21 09:49:13;;;;;;;3.45;1.55;;;8.30;99.90;;;;;;8368810;22;20049;-72
2021/01/21 09:53:13;;;;;;;2.30;1.80;;;8.40;99.90;;;;;;8346068;28;20515;-73
2021/01/21 09:57:15;;;;;;;1.90;1.40;;;8.40;99.90;;;;;;8335085;28;20033;-73
2021/01/21 10:01:15;;;;;;;2.60;2.40;;;8.40;99.90;;;;;;8337091;28;20466;-73
2021/01/21 10:05:16;;;;;;;11.88;8.60;;;9.10;99.90;;;;;;8359628;28;20025;-73
2021/01/21 10:09:16;;;;;;;24.35;16.40;;;9.60;99.90;;;;;;8358344;28;20657;-72
2021/01/21 10:13:17;;;;;;;3.65;2.20;;;10.00;99.90;;;;;;8358356;28;20121;-73
2021/01/21 10:17:17;;;;;;;2.25;1.40;;;10.20;99.90;;;;;;8361605;28;20017;-72
2021/01/21 10:21:18;;;;;;;2.97;1.20;;;10.00;99.90;;;;;;8352412;28;20033;-73
2021/01/21 10:25:18;;;;;;;10.48;6.50;;;9.50;99.90;;;;;;8343257;28;21237;-73
2021/01/21 10:29:19;;;;;;;2.38;1.38;;;9.10;99.90;;;;;;8345348;28;20040;-73
2021/01/21 10:33:19;;;;;;;2.63;1.20;;;8.40;99.90;;;;;;8361006;28;20032;-73
2021/01/21 10:37:20;;;;;;;1.85;1.35;;;8.20;99.90;;;;;;8359422;28;20032;-73
2021/01/21 10:41:21;;;;;;;2.15;1.30;;;8.20;99.90;;;;;;8334217;28;20120;-73
2021/01/21 10:45:21;;;;;;;1.35;1.10;;;9.80;99.90;;;;;;8326507;28;20511;-72
2021/01/21 10:49:22;;;;;;;2.13;1.33;;;12.00;97.60;;;;;;8357586;28;20029;-73
2021/01/21 10:53:22;;;;;;;2.13;1.45;;;14.10;91.80;;;;;;8360511;28;20033;-73
2021/01/21 10:57:23;;;;;;;2.38;1.35;;;16.00;82.30;;;;;;8359169;28;20123;-73
2021/01/21 11:01:23;;;;;;;72.72;36.22;;;15.90;76.20;;;;;;8358307;28;20025;-73
2021/01/21 11:05:24;;;;;;;46.80;17.77;;;17.00;71.30;;;;;;8348358;28;20482;-73
2021/01/21 11:09:37;;;;;;;17.38;13.07;;;14.80;74.00;;;;;;8359729;28;20029;-73
2021/01/21 11:13:37;;;;;;;17.35;15.50;;;12.30;84.40;;;;;;8349407;28;20021;-70
2021/01/21 11:17:38;;;;;;;30.13;16.02;;;11.30;89.10;;;;;;8342899;28;20024;-69
2021/01/21 11:21:38;;;;;;;39.10;17.70;;;11.00;91.10;;;;;;8342117;28;20028;-70
2021/01/21 11:25:39;;;;;;;36.75;16.95;;;10.90;91.40;;;;;;8344070;28;20022;-71
2021/01/21 11:29:39;;;;;;;41.45;17.30;;;11.30;91.50;;;;;;8342401;28;20021;-70
2021/01/21 11:33:40;;;;;;;43.80;18.30;;;15.10;81.00;;;;;;8354946;28;20047;-74
2021/01/21 11:37:41;;;;;;;42.08;17.90;;;15.50;73.80;;;;;;8359851;28;20043;-73
2021/01/21 11:41:41;;;;;;;42.55;18.13;;;15.20;75.10;;;;;;8359430;28;20037;-74
2021/01/21 11:45:44;;;;;;;53.53;19.67;;;17.80;66.90;;;;;;8341179;28;20061;-73
2021/01/21 11:49:44;;;;;;;52.47;19.63;;;17.70;62.30;;;;;;8324739;28;20033;-73
2021/01/21 11:53:47;;;;;;;36.53;17.17;;;;;;;;;;8334000;28;20092;-72
2021/01/21 11:57:48;;;;;;;33.45;16.55;;;13.50;73.90;;;;;;8346039;28;20030;-72
2021/01/21 12:01:48;;;;;;;22.15;14.15;;;12.20;80.00;;;;;;8339299;28;20399;-73
2021/01/21 12:05:49;;;;;;;22.25;14.07;;;11.80;83.70;;;;;;8350576;28;20079;-73
2021/01/21 12:09:49;;;;;;;31.35;15.85;;;11.40;84.90;;;;;;8358329;28;20033;-73
2021/01/21 12:13:50;;;;;;;36.00;17.15;;;10.90;87.80;;;;;;8339233;28;20119;-74
2021/01/21 12:17:50;;;;;;;36.30;16.98;;;11.10;87.90;;;;;;8353637;28;20104;-72
2021/01/21 12:21:51;;;;;;;27.05;15.13;;;11.40;87.90;;;;;;8368344;28;20033;-72
2021/01/21 12:25:53;;;;;;;37.03;16.90;;;12.70;84.70;;;;;;8329501;28;20391;-72
2021/01/21 12:29:53;;;;;;;38.05;17.20;;;13.90;79.70;;;;;;8360312;28;20037;-73
2021/01/21 12:33:55;;;;;;;36.88;17.15;;;13.50;79.30;;;;;;8367557;28;20527;-72
2021/01/21 12:37:55;;;;;;;36.55;17.15;;;14.00;79.00;;;;;;8349870;28;20037;-71
2021/01/21 12:41:56;;;;;;;29.70;15.57;;;12.70;81.70;;;;;;8345131;28;20572;-72
2021/01/21 12:45:56;;;;;;;22.58;14.23;;;11.90;86.50;;;;;;8347928;28;20083;-72
2021/01/21 12:49:57;;;;;;;34.42;16.33;;;12.20;86.50;;;;;;8341058;28;20511;-72
2021/01/21 12:53:58;;;;;;;27.63;15.18;;;13.60;82.20;;;;;;8350854;28;20095;-71
2021/01/21 12:57:59;;;;;;;24.25;14.15;;;13.50;82.20;;;;;;8361649;28;20029;-71
2021/01/21 13:01:59;;;;;;;21.70;13.52;;;13.00;82.60;;;;;;8344963;28;20392;-71
2021/01/21 13:06:00;;;;;;;21.70;13.52;;;12.50;84.10;;;;;;8344480;28;20025;-71
2021/01/21 13:10:00;;;;;;;21.48;13.95;;;11.70;88.30;;;;;;8356947;28;20493;-71
2021/01/21 13:14:01;;;;;;;21.98;14.63;;;11.50;90.00;;;;;;8343604;28;20033;-71
2021/01/21 13:18:02;;;;;;;28.17;14.98;;;11.20;90.80;;;;;;8353656;28;20056;-72
2021/01/21 13:22:03;;;;;;;23.55;13.98;;;12.50;89.20;;;;;;8359464;28;20033;-71
2021/01/21 13:26:03;;;;;;;22.48;14.43;;;13.70;84.50;;;;;;8345110;28;20024;-69
2021/01/21 13:30:04;;;;;;;;;;;14.00;81.90;;;;;;8340279;28;20094;-69
2021/01/21 13:34:05;;;;;;;21.60;13.30;;;13.20;83.60;;;;;;8335868;28;20407;-70
2021/01/21 13:38:05;;;;;;;;;;;12.30;87.20;;;;;;8341732;28;20522;-69
2021/01/21 13:46:44;;;;;;;;;;;11.00;91.40;;;;;;8347206;28;20385;-69
2021/01/21 13:50:44;;;;;;;;;;;11.20;91.50;;;;;;8362716;28;19912;-70
2021/01/21 13:54:44;;;;;;;;;;;11.40;91.40;;;;;;8356736;28;19928;-69
2021/01/21 13:58:45;;;;;;;;;;;11.20;91.70;;;;;;8351985;28;19909;-69
2021/01/21 14:02:45;;;;;;;;;;;11.00;92.40;;;;;;8353948;28;20625;-68
2021/01/21 14:06:46;;;;;;;18.88;12.90;;;10.80;93.10;;;;;;8340469;28;20419;-69
2021/01/21 14:10:46;;;;;;;;;;;10.80;94.30;;;;;;8344576;28;20156;-70
2021/01/21 14:14:47;;;;;;;;;;;10.90;95.20;;;;;;8346236;28;20537;-70
2021/01/21 14:18:47;;;;;;;;;;;10.80;93.80;;;;;;8357086;28;20391;-69
2021/01/21 14:22:48;;;;;;;;;;;10.70;95.70;;;;;;8350085;28;19920;-70
2021/01/21 14:26:49;;;;;;;11.50;9.97;;;10.60;94.50;;;;;;8341764;28;19939;-71
2021/01/21 14:30:49;;;;;;;;;;;10.20;95.40;;;;;;8343121;28;20071;-70
2021/01/21 14:34:50;;;;;;;;;;;10.10;96.00;;;;;;8337976;28;20456;-71
2021/01/21 14:38:50;;;;;;;;;;;9.80;97.30;;;;;;8335974;28;20006;-71
2021/01/21 14:42:51;;;;;;;287.35;271.55;;;9.80;97.40;;;;;;8331662;28;20401;-70
2021/01/21 14:46:52;;;;;;;309.13;292.27;;;9.70;97.30;;;;;;8331749;28;20043;-72
2021/01/21 14:50:52;;;;;;;207.90;195.90;;;9.70;97.80;;;;;;8338533;28;20063;-71
2021/01/21 14:54:53;;;;;;;190.38;179.27;;;9.60;97.80;;;;;;8345289;28;20075;-71
2021/01/21 14:58:53;;;;;;;209.32;197.73;;;9.40;98.70;;;;;;8345106;28;20049;-70
2021/01/21 15:02:54;;;;;;;108.88;102.30;;;9.30;99.10;;;;;;8334206;28;20030;-70
2021/01/21 15:06:54;;;;;;;66.28;58.25;;;9.10;99.90;;;;;;8338634;28;20037;-69
2021/01/21 15:11:00;;;;;;;88.63;38.42;;;8.80;99.90;;;;;;8344515;28;20076;-71
2021/01/21 15:15:00;;;;;;;101.75;92.93;;;8.80;99.90;;;;;;8344059;28;20025;-71
2021/01/21 15:19:01;;;;;;;92.40;31.27;;;8.70;99.90;;;;;;8339793;28;20033;-70
2021/01/21 15:23:01;;;;;;;;;;;8.60;99.90;;;;;;8343358;28;20049;-71
2021/01/21 15:27:04;;;;;;;3.67;2.23;;;8.60;99.90;;;;;;8340640;28;20767;-70
2021/01/21 15:31:05;;;;;;;;;;;8.30;99.90;;;;;;8344205;28;20029;-71
2021/01/21 15:35:06;;;;;;;;;;;8.00;99.90;;;;;;8340252;28;20364;-71
2021/01/21 15:39:07;;;;;;;;;;;7.70;99.90;;;;;;8342419;28;19913;-69
2021/01/21 15:43:09;;;;;;;;;;;7.80;99.90;;;;;;8343168;28;19948;-70
2021/01/21 15:47:09;;;;;;;;;;;7.60;99.90;;;;;;8341442;28;20382;-70
2021/01/21 15:55:48;;;;;;;;;;;7.30;99.90;;;;;;8383251;22;20344;-68
2021/01/21 15:59:48;;;;;;;;;;;7.20;99.90;;;;;;8359655;28;19936;-69
2021/01/21 16:03:49;;;;;;;;;;;;;;;;;;8354622;28;20359;-68
2021/01/21 16:07:50;;;;;;;;;;;6.80;99.90;;;;;;8329953;28;20291;-68
2021/01/21 16:11:50;;;;;;;;;;;6.50;99.90;;;;;;8349739;28;19904;-68
2021/01/21 16:15:51;;;;;;;;;;;6.40;99.90;;;;;;8364517;28;19999;-69
2021/01/21 16:19:52;;;;;;;;;;;6.50;99.90;;;;;;8348798;28;19905;-69
2021/01/21 16:23:52;;;;;;;;;;;6.60;99.90;;;;;;8348421;28;19916;-69
2021/01/21 16:27:53;;;;;;;;;;;6.60;99.90;;;;;;8355264;28;19912;-68
2021/01/21 16:31:53;;;;;;;;;;;6.70;99.90;;;;;;8365919;28;20383;-69
2021/01/21 16:35:54;;;;;;;;;;;6.70;99.90;;;;;;8346101;28;19915;-68
2021/01/21 16:39:55;;;;;;;;;;;6.70;99.90;;;;;;8353409;28;19931;-68
2021/01/21 16:43:55;;;;;;;;;;;6.50;99.90;;;;;;8361572;28;19908;-68
2021/01/21 16:47:56;;;;;;;;;;;6.60;99.90;;;;;;8361161;28;19954;-68
2021/01/21 16:51:56;;;;;;;;;;;6.40;99.90;;;;;;8362388;28;19951;-69
2021/01/21 16:55:57;;;;;;;;;;;6.30;99.90;;;;;;8360084;28;19913;-68
2021/01/21 16:59:57;;;;;;;;;;;6.10;99.90;;;;;;8362008;28;19912;-68
2021/01/21 17:03:59;;;;;;;;;;;5.80;99.90;;;;;;8360666;28;19904;-69
2021/01/21 17:07:59;;;;;;;;;;;5.60;99.90;;;;;;8361806;28;19905;-69
2021/01/21 17:12:01;;;;;;;;;;;5.30;99.90;;;;;;8359370;28;20374;-68
2021/01/21 17:16:01;;;;;;;;;;;5.20;99.90;;;;;;8336767;28;19942;-69
2021/01/21 17:20:02;;;;;;;;;;;5.20;99.90;;;;;;8348876;28;19920;-67
2021/01/21 17:24:03;;;;;;;;;;;5.40;99.90;;;;;;8343549;28;19908;-67
2021/01/21 17:28:03;;;;;;;;;;;5.30;99.90;;;;;;8326154;28;19935;-67
2021/01/21 17:32:04;;;;;;;;;;;5.20;99.90;;;;;;8327752;28;19909;-68
2021/01/21 17:36:04;;;;;;;;;;;4.90;99.90;;;;;;8327669;28;19916;-68
2021/01/21 17:40:06;;;;;;;;;;;4.90;99.90;;;;;;8328057;28;19909;-68
2021/01/21 17:44:06;;;;;;;;;;;4.60;99.90;;;;;;8327790;28;19991;-68
2021/01/21 17:48:07;;;;;;;;;;;4.70;99.90;;;;;;8326699;28;20363;-68
2021/01/21 17:52:12;;;;;;;;;;;4.70;99.90;;;;;;8327826;28;19912;-67
2021/01/21 17:56:13;;;;;;;;;;;4.60;99.90;;;;;;8326956;28;19905;-67
2021/01/21 18:00:13;;;;;;;;;;;4.50;99.90;;;;;;8326771;28;19912;-67
2021/01/21 18:04:14;;;;;;;;;;;4.60;99.90;;;;;;8326801;28;20362;-67
2021/01/21 18:08:14;;;;;;;;;;;4.80;99.90;;;;;;8328861;28;19909;-68
2021/01/21 18:12:15;;;;;;;;;;;4.60;99.90;;;;;;8350382;28;20582;-67
2021/01/21 18:16:17;;;;;;;;;;;4.20;99.90;;;;;;8341816;28;19974;-67
2021/01/21 18:20:17;;;;;;;;;;;4.10;99.90;;;;;;8347739;28;19912;-66
2021/01/21 18:24:18;;;;;;;;;;;4.00;99.90;;;;;;8343468;28;19913;-68
2021/01/21 18:28:18;;;;;;;;;;;4.10;99.90;;;;;;8349395;28;19912;-68
2021/01/21 18:32:20;;;;;;;;;;;4.00;99.90;;;;;;8330045;28;19944;-67
2021/01/21 18:36:21;;;;;;;;;;;4.30;99.90;;;;;;8335979;28;19952;-66
2021/01/21 18:40:23;;;;;;;;;;;4.30;99.90;;;;;;8329263;28;19949;-68
2021/01/21 18:44:24;;;;;;;;;;;4.10;99.90;;;;;;8336920;28;19916;-67
2021/01/21 18:48:24;;;;;;;;;;;4.00;99.90;;;;;;8333461;28;20329;-68
2021/01/21 18:52:25;;;;;;;;;;;3.90;99.90;;;;;;8326506;28;19940;-67
2021/01/21 18:56:26;;;;;;;;;;;4.20;99.90;;;;;;8332772;28;19917;-66
2021/01/21 19:00:26;;;;;;;;;;;4.20;99.90;;;;;;8337514;28;19971;-67
2021/01/21 19:04:27;;;;;;;;;;;4.30;99.90;;;;;;8321653;28;19917;-67
2021/01/21 19:08:27;;;;;;;;;;;4.30;99.90;;;;;;8334177;28;19917;-67
2021/01/21 19:12:27;;;;;;;;;;;4.20;99.90;;;;;;8335016;28;20366;-67
2021/01/21 19:16:28;;;;;;;;;;;4.10;99.90;;;;;;8336341;28;19952;-67
2021/01/21 19:20:28;;;;;;;;;;;4.00;99.90;;;;;;8344275;28;19962;-66
2021/01/21 19:24:29;;;;;;;;;;;4.30;99.90;;;;;;8347148;28;19915;-67
2021/01/21 19:28:29;;;;;;;;;;;4.30;99.90;;;;;;8332209;28;19916;-67
2021/01/21 19:32:30;;;;;;;;;;;4.30;99.90;;;;;;8329401;28;19909;-67
2021/01/21 19:36:31;;;;;;;;;;;4.30;99.90;;;;;;8335755;28;19983;-67
2021/01/21 19:40:31;;;;;;;;;;;4.20;99.90;;;;;;8324851;28;19913;-67
2021/01/21 19:44:32;;;;;;;;;;;4.20;99.90;;;;;;8357625;28;19909;-67
2021/01/21 19:48:32;;;;;;;;;;;4.20;99.90;;;;;;8359974;28;20278;-68
2021/01/21 19:52:33;;;;;;;;;;;4.10;99.90;;;;;;8357329;28;20486;-67
2021/01/21 19:56:34;;;;;;;;;;;4.10;99.90;;;;;;8355902;28;19995;-68
2021/01/21 20:00:34;;;;;;;;;;;3.90;99.90;;;;;;8347204;28;20233;-67
2021/01/21 20:04:35;;;;;;;;;;;3.90;99.90;;;;;;8330957;28;19974;-67
2021/01/21 20:08:35;;;;;;;;;;;3.80;99.90;;;;;;8337787;28;19924;-68
2021/01/21 20:12:36;;;;;;;;;;;3.60;99.90;;;;;;8344046;28;19913;-67
2021/01/21 20:16:36;;;;;;;;;;;3.50;99.90;;;;;;8339887;28;19971;-67
2021/01/21 20:20:37;;;;;;;;;;;3.50;99.90;;;;;;8342814;28;19923;-67
2021/01/21 20:24:37;;;;;;;;;;;3.40;99.90;;;;;;8341344;28;20060;-67
2021/01/21 20:28:38;;;;;;;;;;;3.40;99.90;;;;;;8338442;28;19908;-67
2021/01/21 20:32:39;;;;;;;;;;;3.60;99.90;;;;;;8344908;28;19916;-67
2021/01/21 20:36:39;;;;;;;;;;;3.50;99.90;;;;;;8337951;28;19935;-67
2021/01/21 20:40:40;;;;;;;;;;;3.30;99.90;;;;;;8341536;28;19917;-67
2021/01/21 20:44:40;;;;;;;;;;;3.50;99.90;;;;;;8341996;28;19909;-67
2021/01/21 20:48:41;;;;;;;;;;;3.50;99.90;;;;;;8346281;28;19940;-67
2021/01/21 20:52:42;;;;;;;;;;;3.70;99.90;;;;;;8333222;28;19962;-67
2021/01/21 20:56:42;;;;;;;;;;;3.80;99.90;;;;;;8340665;28;19909;-67
2021/01/21 21:00:43;;;;;;;;;;;4.00;99.90;;;;;;8339491;28;19913;-67
2021/01/21 21:04:44;;;;;;;;;;;3.90;99.90;;;;;;8341163;28;19909;-68
2021/01/21 21:08:44;;;;;;;;;;;3.90;99.90;;;;;;8338283;28;20341;-67
2021/01/21 21:12:45;;;;;;;;;;;3.90;99.90;;;;;;8341645;28;20413;-67
2021/01/21 21:16:45;;;;;;;;;;;4.10;99.90;;;;;;8330002;28;19913;-67
2021/01/21 21:20:48;;;;;;;;;;;4.00;99.90;;;;;;8340043;28;19916;-66
2021/01/21 21:24:49;;;;;;;;;;;3.90;99.90;;;;;;8338377;28;20371;-67
2021/01/21 21:28:49;;;;;;;;;;;4.00;99.90;;;;;;8356871;28;19908;-67
2021/01/21 21:32:50;;;;;;;;;;;3.80;99.90;;;;;;8357854;28;19909;-68
2021/01/21 21:36:50;;;;;;;;;;;3.60;99.90;;;;;;8356561;28;19913;-67
2021/01/21 21:40:51;;;;;;;;;;;3.60;99.90;;;;;;8357894;28;19913;-67
2021/01/21 21:44:51;;;;;;;;;;;3.50;99.90;;;;;;8356400;28;19919;-67
2021/01/21 21:48:52;;;;;;;;;;;3.70;99.90;;;;;;8357868;28;19931;-67
2021/01/21 21:52:52;;;;;;;;;;;3.40;99.90;;;;;;8357486;28;20631;-67
2021/01/21 21:56:52;;;;;;;;;;;3.50;99.90;;;;;;8344783;28;19916;-67
2021/01/21 22:00:53;;;;;;;;;;;3.30;99.90;;;;;;8328685;28;20010;-67
2021/01/21 22:04:54;;;;;;;;;;;3.20;99.90;;;;;;8355495;28;20286;-66